EDDG METAR and TAF | Updated Today

EDDG METAR

Münster Osnabrück Airport

Observation time: 25 min. ago

EDDG 291150Z 34008KT 9999 FEW024 12/06 Q1013 NOSIG

Need help? Read our tutorial on how to read METARs or read the parsed version below.

Münster Osnabrück Airport (EDDG) METAR

  • Weather conditions on Sun, 29 May 2022 11:50:00 +0000 (25 min. ago):
  • Present conditions: Dry
  • Clouds: A few at 732 meters
  • Visibility: Greater than 10 km
  • Wind: 340 degrees at 8 knots
  • Temperature: 12 celsius
  • Dew point: 6 celsius
  • Pressure: 1013 millibars
  • Remarks: None


Useful to know...

EDDG TAF

Münster Osnabrück Airport

TAF EDDG 291100Z 2912/3012 32009KT 9999 BKN040 PROB30 TEMPO 2912/2918 SHRA BKN030CB BECMG 2918/2921 29004KT
Observation time: 75 min. ago
Need help? Read our tutorial on how to read TAFs or read the parsed version below.

Parsed version of TAF for Münster Osnabrück Airport (EDDG)

  • From 29 May at 12:00 UTC, to day 30 of the month at 12:00 UTC
  • Clouds: Broken sky at 1219 meters
  • Visibility: Greater than 10 km
  • Wind: 320 degrees at 9
  • Expected to arise temporarily, from 29 May at 12:00 UTC, to day 29 of the month at 18:00 UTC
    Probability of 30%
  • Clouds: Broken sky at 914 meters, cumulonimbus
  • Expected to arise soon, from 29 May at 18:00 UTC, to day 29 of the month at 21:00 UTC
  • Wind: 290 degrees at 4